Time;durP1;ratioP1;P1;durP2;ratioP2;P2;SDS_P1;SDS_P2;PMS_P1;PMS_P2;Temp;Humidity;BMP_temperature;BMP_pressure;BME280_temperature;BME280_humidity;BME280_pressure;Samples;Min_cycle;Max_cycle;Signal;HPM_P1;HPM_P2
2023/02/25 00:01:14;;;;;;;12.27;4.82;;;;;;;;;;4994681;28;20062;-61
2023/02/25 00:03:41;;;;;;;9.48;4.57;;;;;;;;;;4995335;28;20090;-61
2023/02/25 00:06:12;;;;;;;10.05;3.95;;;;;;;;;;5003455;28;20056;-61
2023/02/25 00:08:39;;;;;;;11.38;4.70;;;;;;;;;;5014352;28;20050;-59
2023/02/25 00:11:07;;;;;;;9.77;4.05;;;;;;;;;;5014196;28;20046;-60
2023/02/25 00:13:34;;;;;;;6.53;2.95;;;;;;;;;;5014243;28;20054;-59
2023/02/25 00:16:02;;;;;;;8.13;3.17;;;;;;;;;;5014271;28;20052;-61
2023/02/25 00:18:31;;;;;;;7.28;2.90;;;;;;;;;;5014134;28;20102;-60
2023/02/25 00:20:58;;;;;;;7.28;2.63;;;;;;;;;;5013911;28;20465;-59
2023/02/25 00:23:25;;;;;;;10.38;2.80;;;;;;;;;;5014088;28;20050;-59
2023/02/25 00:25:58;;;;;;;5.95;2.70;;;;;;;;;;5014143;28;20046;-60
2023/02/25 00:28:25;;;;;;;7.20;2.70;;;;;;;;;;5013675;28;20108;-60
2023/02/25 00:30:52;;;;;;;8.07;2.83;;;;;;;;;;5013565;28;20125;-60
2023/02/25 00:33:19;;;;;;;6.63;2.97;;;;;;;;;;5013835;28;20050;-60
2023/02/25 00:35:48;;;;;;;7.50;2.72;;;;;;;;;;5041261;22;20049;-78
2023/02/25 00:38:15;;;;;;;5.70;2.67;;;;;;;;;;5041076;28;20045;-79
2023/02/25 00:40:42;;;;;;;5.40;2.65;;;;;;;;;;5042518;28;20096;-79
2023/02/25 00:43:09;;;;;;;7.90;2.90;;;;;;;;;;5039301;28;20059;-81
2023/02/25 00:45:39;;;;;;;6.93;2.90;;;;;;;;;;5041542;28;20508;-79
2023/02/25 00:48:05;;;;;;;7.55;3.20;;;;;;;;;;5042550;28;20080;-80
2023/02/25 00:50:32;;;;;;;7.60;3.40;;;;;;;;;;5037806;28;20052;-79
2023/02/25 00:53:00;;;;;;;6.43;2.72;;;;;;;;;;5038158;28;20416;-79
2023/02/25 00:55:32;;;;;;;9.25;4.15;;;;;;;;;;5038308;28;20132;-78
2023/02/25 00:57:59;;;;;;;7.13;3.05;;;;;;;;;;5036141;28;20049;-78
2023/02/25 01:00:27;;;;;;;8.93;3.65;;;;;;;;;;5036900;28;20528;-77
2023/02/25 01:02:56;;;;;;;7.65;3.28;;;;;;;;;;5036483;28;20057;-79
2023/02/25 01:05:22;;;;;;;6.30;3.20;;;;;;;;;;5037019;28;20041;-79
2023/02/25 01:07:49;;;;;;;8.65;3.30;;;;;;;;;;5036325;28;20049;-79
2023/02/25 01:10:18;;;;;;;7.82;2.92;;;;;;;;;;5036014;28;20056;-79
2023/02/25 01:12:44;;;;;;;7.05;2.90;;;;;;;;;;5035936;28;20065;-78
2023/02/25 01:15:12;;;;;;;10.43;3.70;;;;;;;;;;5036766;28;20088;-78
2023/02/25 01:17:38;;;;;;;7.97;3.58;;;;;;;;;;5036522;28;20051;-78
2023/02/25 01:20:11;;;;;;;6.70;3.20;;;;;;;;;;5041161;28;20135;-79
2023/02/25 01:22:40;;;;;;;6.93;3.00;;;;;;;;;;5042475;28;20063;-78
2023/02/25 01:25:10;;;;;;;7.90;3.22;;;;;;;;;;5038242;28;20072;-78
2023/02/25 01:27:38;;;;;;;8.52;3.40;;;;;;;;;;5037092;28;20056;-79
2023/02/25 01:30:07;;;;;;;7.03;2.70;;;;;;;;;;5036250;28;20076;-78
2023/02/25 01:32:33;;;;;;;7.60;4.28;;;;;;;;;;5035773;28;20073;-78
2023/02/25 01:35:01;;;;;;;10.38;3.92;;;;;;;;;;5036793;28;20056;-78
2023/02/25 01:37:27;;;;;;;9.90;3.80;;;;;;;;;;5035393;28;20057;-78
2023/02/25 01:39:54;;;;;;;8.43;3.63;;;;;;;;;;5035723;28;20052;-78
2023/02/25 01:42:21;;;;;;;9.15;4.25;;;;;;;;;;5034480;28;20088;-78
2023/02/25 01:45:33;;;;;;;9.25;4.00;;;;;;;;;;5033139;28;20041;-79
2023/02/25 01:48:07;;;;;;;10.35;4.25;;;;;;;;;;5034518;28;20049;-78
2023/02/25 01:50:43;;;;;;;10.77;4.43;;;;;;;;;;5035320;28;20052;-79
2023/02/25 01:53:10;;;;;;;8.82;4.13;;;;;;;;;;5034457;28;20140;-79
2023/02/25 01:55:39;;;;;;;8.25;4.35;;;;;;;;;;5034406;28;20476;-78
2023/02/25 01:58:08;;;;;;;10.45;5.28;;;;;;;;;;5034035;28;20084;-78
2023/02/25 02:00:35;;;;;;;11.30;5.10;;;;;;;;;;5034220;28;20100;-78
2023/02/25 02:03:05;;;;;;;10.52;4.57;;;;;;;;;;5034833;28;20080;-78
2023/02/25 02:05:56;;;;;;;11.38;4.32;;;;;;;;;;5030958;28;20479;-78
2023/02/25 02:08:25;;;;;;;7.65;4.18;;;;;;;;;;5014080;28;20496;-78
2023/02/25 02:10:51;;;;;;;8.23;4.10;;;;;;;;;;5013890;28;20054;-78
2023/02/25 02:13:18;;;;;;;8.32;4.00;;;;;;;;;;5014305;28;20133;-77
2023/02/25 02:15:55;;;;;;;8.48;3.70;;;;;;;;;;5014885;28;20564;-79
2023/02/25 02:18:24;;;;;;;8.25;3.90;;;;;;;;;;5015584;28;20128;-78
2023/02/25 02:21:06;;;;;;;7.28;3.63;;;;;;;;;;5015211;28;20050;-79
2023/02/25 02:24:14;;;;;;;9.32;3.67;;;;;;;;;;5016035;28;20057;-79
2023/02/25 02:26:56;;;;;;;7.57;3.85;;;;;;;;;;5015879;28;20133;-78
2023/02/25 02:29:52;;;;;;;7.57;3.38;;;;;;;;;;5018684;28;20046;-78
2023/02/25 02:32:31;;;;;;;7.30;3.08;;;;;;;;;;5015141;28;20452;-78
2023/02/25 02:35:08;;;;;;;6.70;3.40;;;;;;;;;;5015094;28;20488;-79
2023/02/25 02:37:42;;;;;;;7.28;3.53;;;;;;;;;;5015316;28;20046;-78
2023/02/25 02:40:22;;;;;;;9.25;3.20;;;;;;;;;;5016019;28;20133;-79
2023/02/25 02:43:06;;;;;;;5.82;2.65;;;;;;;;;;5015312;28;20057;-78
2023/02/25 02:45:40;;;;;;;6.90;2.97;;;;;;;;;;5014292;28;20469;-78
2023/02/25 02:48:11;;;;;;;6.40;2.67;;;;;;;;;;5014203;28;20068;-80
2023/02/25 02:50:41;;;;;;;5.60;2.55;;;;;;;;;;5013326;28;20084;-78
2023/02/25 02:53:13;;;;;;;5.40;2.38;;;;;;;;;;5014718;28;20046;-78
2023/02/25 02:55:43;;;;;;;6.72;2.40;;;;;;;;;;5013580;28;20460;-79
2023/02/25 02:58:15;;;;;;;5.60;2.45;;;;;;;;;;5013228;28;20050;-79
2023/02/25 03:00:44;;;;;;;7.60;3.20;;;;;;;;;;5017362;28;20456;-79
2023/02/25 03:03:15;;;;;;;6.25;2.45;;;;;;;;;;5019131;28;20050;-78
2023/02/25 03:05:45;;;;;;;6.70;2.83;;;;;;;;;;5020412;28;20084;-79
2023/02/25 03:08:17;;;;;;;6.22;2.30;;;;;;;;;;5022340;28;20045;-79
2023/02/25 03:10:44;;;;;;;5.88;2.28;;;;;;;;;;5022763;28;20108;-79
2023/02/25 03:13:11;;;;;;;5.18;2.00;;;;;;;;;;5030381;28;20085;-78
2023/02/25 03:15:38;;;;;;;5.35;2.60;;;;;;;;;;5035785;28;20052;-79
2023/02/25 03:18:10;;;;;;;5.07;2.15;;;;;;;;;;5024513;28;20045;-79
2023/02/25 03:20:42;;;;;;;4.40;2.17;;;;;;;;;;5024891;28;20114;-79
2023/02/25 03:23:14;;;;;;;4.82;2.25;;;;;;;;;;5032383;28;20077;-78
2023/02/25 03:25:46;;;;;;;6.68;2.10;;;;;;;;;;5034363;28;20081;-78
2023/02/25 03:28:22;;;;;;;5.18;2.10;;;;;;;;;;5029828;28;20050;-79
2023/02/25 03:30:56;;;;;;;6.05;2.30;;;;;;;;;;5030563;28;20057;-79
2023/02/25 03:33:29;;;;;;;5.13;2.00;;;;;;;;;;5026083;28;20137;-79
2023/02/25 03:35:59;;;;;;;4.45;1.73;;;;;;;;;;5025412;28;20501;-78
2023/02/25 03:38:32;;;;;;;5.05;2.30;;;;;;;;;;5022998;28;20057;-78
2023/02/25 03:41:02;;;;;;;5.60;2.08;;;;;;;;;;5023335;28;20508;-78
2023/02/25 03:43:33;;;;;;;4.28;2.15;;;;;;;;;;5024884;28;20049;-79
2023/02/25 03:46:00;;;;;;;;;;;;;;;;;;5024837;28;20049;-79
2023/02/25 03:48:28;;;;;;;4.20;1.92;;;;;;;;;;5024466;28;20024;-78
2023/02/25 03:51:00;;;;;;;5.20;1.90;;;;;;;;;;5020845;28;20141;-78
2023/02/25 03:53:28;;;;;;;5.32;1.90;;;;;;;;;;5021359;28;20076;-79
2023/02/25 03:55:56;;;;;;;5.68;2.13;;;;;;;;;;5027920;28;20025;-78
2023/02/25 03:58:23;;;;;;;5.63;2.80;;;;;;;;;;5035539;28;20049;-78
2023/02/25 04:00:54;;;;;;;5.05;1.73;;;;;;;;;;5035151;28;20145;-78
2023/02/25 04:03:21;;;;;;;3.50;1.80;;;;;;;;;;5036561;28;20042;-78
2023/02/25 04:05:48;;;;;;;5.53;2.25;;;;;;;;;;5041878;28;20060;-77
2023/02/25 04:08:16;;;;;;;5.47;2.33;;;;;;;;;;5056063;28;20042;-77
2023/02/25 04:10:43;;;;;;;5.15;2.28;;;;;;;;;;5055555;28;20073;-77
2023/02/25 04:13:10;;;;;;;4.88;2.53;;;;;;;;;;5056209;28;20101;-77
2023/02/25 04:15:37;;;;;;;5.82;2.33;;;;;;;;;;5056214;28;20120;-78
2023/02/25 04:18:04;;;;;;;5.40;2.60;;;;;;;;;;5055595;28;20045;-79
2023/02/25 04:20:31;;;;;;;7.90;2.28;;;;;;;;;;5053966;28;20060;-79
2023/02/25 04:22:58;;;;;;;6.32;3.00;;;;;;;;;;5054919;28;20112;-79
2023/02/25 04:25:26;;;;;;;8.25;3.45;;;;;;;;;;5055428;28;20067;-79
2023/02/25 04:27:52;;;;;;;7.05;3.10;;;;;;;;;;5054145;28;20065;-79
2023/02/25 04:30:20;;;;;;;4.78;2.40;;;;;;;;;;5055336;28;20080;-79
2023/02/25 04:32:47;;;;;;;6.72;3.13;;;;;;;;;;5055379;28;20069;-80
2023/02/25 04:35:13;;;;;;;7.85;3.17;;;;;;;;;;5055375;28;20057;-79
2023/02/25 04:37:41;;;;;;;8.07;3.50;;;;;;;;;;5053458;28;20057;-78
2023/02/25 04:40:13;;;;;;;9.00;3.58;;;;;;;;;;5054834;28;20076;-77
2023/02/25 04:42:42;;;;;;;8.23;3.53;;;;;;;;;;5055111;28;20087;-78
2023/02/25 04:45:10;;;;;;;8.43;4.07;;;;;;;;;;5055176;28;20053;-78
2023/02/25 04:47:37;;;;;;;8.07;3.95;;;;;;;;;;5055671;28;20049;-77
2023/02/25 04:50:05;;;;;;;9.70;3.78;;;;;;;;;;5056148;28;20048;-76
2023/02/25 04:52:32;;;;;;;7.50;3.67;;;;;;;;;;5055308;28;20036;-77
2023/02/25 04:54:59;;;;;;;9.00;4.13;;;;;;;;;;5054792;28;20124;-77
2023/02/25 04:57:25;;;;;;;8.50;3.88;;;;;;;;;;5054661;28;20029;-78
2023/02/25 04:59:54;;;;;;;8.13;3.85;;;;;;;;;;5055060;28;20048;-77
2023/02/25 05:02:20;;;;;;;11.15;4.47;;;;;;;;;;5054826;28;20076;-78
2023/02/25 05:04:47;;;;;;;10.75;4.70;;;;;;;;;;5055003;28;20044;-78
2023/02/25 05:07:14;;;;;;;9.73;4.00;;;;;;;;;;5037220;28;20056;-77
2023/02/25 05:09:40;;;;;;;10.43;4.22;;;;;;;;;;5033797;28;20046;-78
2023/02/25 05:12:08;;;;;;;11.02;5.45;;;;;;;;;;5025700;28;20053;-79
2023/02/25 05:14:34;;;;;;;8.73;4.47;;;;;;;;;;5027201;28;20045;-79
2023/02/25 05:17:03;;;;;;;12.15;4.63;;;;;;;;;;5032951;28;20053;-79
2023/02/25 05:19:30;;;;;;;9.82;4.88;;;;;;;;;;5026806;28;20060;-78
2023/02/25 05:21:56;;;;;;;11.93;5.72;;;;;;;;;;5022916;28;20084;-79
2023/02/25 05:24:23;;;;;;;11.18;4.72;;;;;;;;;;5023317;28;20129;-80
2023/02/25 05:26:51;;;;;;;13.18;6.15;;;;;;;;;;5022883;28;20053;-80
2023/02/25 05:29:17;;;;;;;11.25;5.32;;;;;;;;;;5022433;28;20045;-79
2023/02/25 05:31:44;;;;;;;12.68;5.15;;;;;;;;;;5021459;28;20078;-79
2023/02/25 05:34:12;;;;;;;11.85;6.30;;;;;;;;;;5021773;28;20053;-79
2023/02/25 05:36:40;;;;;;;11.05;5.75;;;;;;;;;;5022451;28;20138;-80
2023/02/25 05:39:06;;;;;;;12.27;5.63;;;;;;;;;;5021445;28;20054;-80
2023/02/25 05:41:33;;;;;;;12.38;5.65;;;;;;;;;;5021718;28;20560;-80
2023/02/25 05:44:00;;;;;;;13.85;6.25;;;;;;;;;;5024265;28;20132;-78
2023/02/25 05:46:26;;;;;;;15.02;5.95;;;;;;;;;;5031121;28;20069;-77
2023/02/25 05:48:53;;;;;;;14.45;6.25;;;;;;;;;;5033550;28;20069;-77
2023/02/25 05:51:22;;;;;;;13.18;6.20;;;;;;;;;;5025927;28;20046;-78
2023/02/25 05:53:49;;;;;;;14.68;5.72;;;;;;;;;;5022340;28;20133;-79
2023/02/25 05:56:18;;;;;;;15.15;6.65;;;;;;;;;;5022860;28;20042;-79
2023/02/25 05:58:47;;;;;;;13.80;5.68;;;;;;;;;;5019445;28;20061;-79
2023/02/25 06:01:17;;;;;;;13.40;5.97;;;;;;;;;;5015533;28;20169;-79
2023/02/25 06:03:46;;;;;;;15.90;5.55;;;;;;;;;;5015871;28;20141;-78
2023/02/25 06:06:15;;;;;;;14.38;6.43;;;;;;;;;;5015749;28;20049;-78
2023/02/25 06:08:44;;;;;;;15.98;5.88;;;;;;;;;;5017442;28;20046;-79
2023/02/25 06:11:13;;;;;;;13.95;5.80;;;;;;;;;;5015374;28;20042;-79
2023/02/25 06:13:40;;;;;;;14.43;6.35;;;;;;;;;;5017186;28;20045;-78
2023/02/25 06:16:07;;;;;;;15.60;6.22;;;;;;;;;;5021316;28;20241;-79
2023/02/25 06:18:35;;;;;;;15.85;6.47;;;;;;;;;;5021433;28;20405;-78
2023/02/25 06:21:04;;;;;;;16.25;6.93;;;;;;;;;;5021047;28;20054;-78
2023/02/25 06:23:31;;;;;;;14.05;6.13;;;;;;;;;;5016881;28;20050;-79
2023/02/25 06:25:59;;;;;;;14.07;6.25;;;;;;;;;;5017035;28;20053;-78
2023/02/25 06:28:26;;;;;;;14.05;6.43;;;;;;;;;;5017190;28;20073;-79
2023/02/25 06:30:53;;;;;;;13.18;6.00;;;;;;;;;;5021877;28;20133;-78
2023/02/25 06:33:20;;;;;;;15.23;6.57;;;;;;;;;;5022172;28;20129;-78
2023/02/25 06:35:51;;;;;;;12.32;6.32;;;;;;;;;;5034691;23;20104;-56
2023/02/25 06:38:17;;;;;;;15.73;6.30;;;;;;;;;;5002711;28;20063;-57
2023/02/25 06:40:44;;;;;;;13.18;6.30;;;;;;;;;;4992766;28;20066;-57
2023/02/25 06:43:13;;;;;;;15.38;6.70;;;;;;;;;;4992507;28;20081;-54
2023/02/25 06:45:39;;;;;;;14.98;6.30;;;;;;;;;;4992311;28;20135;-54
2023/02/25 06:48:06;;;;;;;13.38;6.45;;;;;;;;;;4992389;28;20050;-56
2023/02/25 06:50:33;;;;;;;13.32;6.00;;;;;;;;;;4994250;28;20559;-58
2023/02/25 06:53:00;;;;;;;13.98;6.18;;;;;;;;;;4996096;28;20054;-56
2023/02/25 06:55:27;;;;;;;13.68;6.15;;;;;;;;;;4996201;28;20100;-57
2023/02/25 06:57:54;;;;;;;15.63;6.57;;;;;;;;;;4995933;28;20467;-57
2023/02/25 07:00:23;;;;;;;15.68;7.60;;;;;;;;;;4996019;28;20133;-58
2023/02/25 07:02:50;;;;;;;12.93;5.72;;;;;;;;;;4996335;28;20105;-57
2023/02/25 07:05:17;;;;;;;14.23;6.15;;;;;;;;;;4996326;28;20105;-56
2023/02/25 07:07:44;;;;;;;14.43;6.15;;;;;;;;;;4995963;28;20430;-53
2023/02/25 07:10:12;;;;;;;13.32;5.82;;;;;;;;;;4996007;28;20109;-57
2023/02/25 07:12:39;;;;;;;11.23;5.65;;;;;;;;;;4996136;28;20058;-58
2023/02/25 07:15:06;;;;;;;12.73;5.35;;;;;;;;;;4995908;28;20065;-57
2023/02/25 07:17:36;;;;;;;12.88;5.90;;;;;;;;;;4995676;28;20462;-57
2023/02/25 07:20:03;;;;;;;15.32;6.40;;;;;;;;;;4996033;28;20073;-57
2023/02/25 07:22:30;;;;;;;14.63;6.97;;;;;;;;;;4995843;28;20096;-57
2023/02/25 07:24:57;;;;;;;14.18;6.78;;;;;;;;;;4996074;28;20047;-58
2023/02/25 07:27:24;;;;;;;15.10;6.57;;;;;;;;;;4995465;28;20046;-60
2023/02/25 07:29:50;;;;;;;12.60;6.18;;;;;;;;;;4995473;28;20105;-60
2023/02/25 07:32:17;;;;;;;14.65;6.60;;;;;;;;;;4995178;28;20047;-59
2023/02/25 07:34:45;;;;;;;12.05;5.90;;;;;;;;;;4995274;28;20050;-61
2023/02/25 07:37:12;;;;;;;14.15;5.22;;;;;;;;;;4995429;28;20042;-61
2023/02/25 07:39:39;;;;;;;13.77;6.10;;;;;;;;;;4995495;28;20078;-61
2023/02/25 07:42:06;;;;;;;15.10;6.18;;;;;;;;;;4995221;28;20054;-61
2023/02/25 07:44:34;;;;;;;17.55;6.78;;;;;;;;;;4995358;28;20494;-61
2023/02/25 07:47:01;;;;;;;17.27;6.50;;;;;;;;;;4994965;28;20097;-60
2023/02/25 07:49:28;;;;;;;15.50;6.70;;;;;;;;;;4994995;28;20046;-61
2023/02/25 07:51:56;;;;;;;12.68;6.60;;;;;;;;;;4994944;28;20050;-61
2023/02/25 07:54:23;;;;;;;13.57;6.80;;;;;;;;;;4995122;28;20046;-58
2023/02/25 07:56:50;;;;;;;13.90;6.80;;;;;;;;;;4995119;28;20108;-61
2023/02/25 07:59:18;;;;;;;14.02;5.97;;;;;;;;;;4994804;28;20423;-61
2023/02/25 08:01:44;;;;;;;15.18;6.85;;;;;;;;;;4994535;28;20055;-60
2023/02/25 08:04:11;;;;;;;15.80;7.00;;;;;;;;;;4994787;28;20058;-60
2023/02/25 08:06:40;;;;;;;16.58;6.47;;;;;;;;;;4994780;28;20416;-61
2023/02/25 08:09:11;;;;;;;16.70;6.50;;;;;;;;;;4994759;28;20050;-61
2023/02/25 08:11:38;;;;;;;;;;;;;;;;;;4995521;28;20081;-60
2023/02/25 08:14:05;;;;;;;15.05;6.10;;;;;;;;;;4994869;28;20037;-60
2023/02/25 08:16:33;;;;;;;13.45;6.05;;;;;;;;;;4994656;28;20082;-61
2023/02/25 08:19:00;;;;;;;15.00;6.55;;;;;;;;;;4994457;28;20050;-61
2023/02/25 08:21:27;;;;;;;14.05;6.38;;;;;;;;;;4994461;28;20054;-60
2023/02/25 08:23:54;;;;;;;14.32;6.13;;;;;;;;;;4994528;28;20553;-60
2023/02/25 08:26:24;;;;;;;11.85;5.05;;;;;;;;;;4994722;28;20408;-60
2023/02/25 08:28:51;;;;;;;16.20;6.33;;;;;;;;;;4994554;28;20069;-60
2023/02/25 08:31:19;;;;;;;10.85;5.80;;;;;;;;;;4993557;28;20776;-57
2023/02/25 08:33:51;;;;;;;12.43;5.05;;;;;;;;;;4994354;28;20610;-54
2023/02/25 08:36:21;;;;;;;12.45;4.30;;;;;;;;;;4994596;28;20078;-56
2023/02/25 08:38:48;;;;;;;16.13;5.77;;;;;;;;;;4994216;28;20050;-52
2023/02/25 08:41:15;;;;;;;8.88;3.72;;;;;;;;;;4994510;28;20057;-56
2023/02/25 08:43:44;;;;;;;10.68;4.53;;;;;;;;;;4994573;28;20046;-56
2023/02/25 08:46:10;;;;;;;10.52;4.10;;;;;;;;;;4994324;28;20053;-57
2023/02/25 08:48:37;;;;;;;10.45;3.70;;;;;;;;;;4994498;28;20105;-53
2023/02/25 08:51:07;;;;;;;8.90;4.07;;;;;;;;;;4994709;28;20069;-54
2023/02/25 08:53:34;;;;;;;10.15;4.43;;;;;;;;;;4993307;28;20047;-55
2023/02/25 08:56:03;;;;;;;9.13;3.70;;;;;;;;;;4994118;28;20050;-53
2023/02/25 08:58:29;;;;;;;9.65;3.70;;;;;;;;;;4993763;28;20065;-56
2023/02/25 09:00:58;;;;;;;9.77;3.55;;;;;;;;;;4993725;28;20050;-56
2023/02/25 09:03:25;;;;;;;9.25;3.55;;;;;;;;;;4993841;28;20140;-52
2023/02/25 09:05:52;;;;;;;9.45;4.13;;;;;;;;;;4993684;28;20051;-56
2023/02/25 09:08:19;;;;;;;7.72;3.65;;;;;;;;;;4993520;28;20051;-55
2023/02/25 09:10:46;;;;;;;8.35;3.45;;;;;;;;;;4993385;28;20051;-55
2023/02/25 09:13:13;;;;;;;9.57;3.47;;;;;;;;;;4993196;28;20050;-54
2023/02/25 09:15:40;;;;;;;11.65;3.65;;;;;;;;;;4993754;28;20459;-57
2023/02/25 09:18:10;;;;;;;8.55;3.42;;;;;;;;;;4993373;28;20042;-55
2023/02/25 09:20:37;;;;;;;10.68;4.18;;;;;;;;;;4993367;28;20093;-55
2023/02/25 09:23:04;;;;;;;8.02;3.40;;;;;;;;;;4993330;28;20050;-55
2023/02/25 09:25:30;;;;;;;8.57;3.90;;;;;;;;;;4993468;28;20487;-57
2023/02/25 09:27:57;;;;;;;8.18;3.30;;;;;;;;;;4993449;28;20047;-55
2023/02/25 09:30:25;;;;;;;5.30;2.20;;;;;;;;;;4993243;28;20105;-55
2023/02/25 09:32:52;;;;;;;8.85;3.47;;;;;;;;;;4993704;28;20498;-56
2023/02/25 09:35:20;;;;;;;8.27;2.95;;;;;;;;;;4993208;28;20047;-55
2023/02/25 09:37:47;;;;;;;9.55;3.33;;;;;;;;;;4993349;28;20057;-56
2023/02/25 09:40:18;;;;;;;8.45;3.30;;;;;;;;;;4993062;28;20104;-54
2023/02/25 09:42:58;;;;;;;7.85;2.67;;;;;;;;;;4993013;28;20046;-55
2023/02/25 09:45:26;;;;;;;5.60;2.45;;;;;;;;;;4993095;28;20047;-54
2023/02/25 09:47:57;;;;;;;5.72;2.55;;;;;;;;;;4993515;28;20149;-54
2023/02/25 09:50:29;;;;;;;13.52;3.13;;;;;;;;;;4992888;28;20519;-57
2023/02/25 09:53:06;;;;;;;8.80;3.42;;;;;;;;;;4993229;28;20054;-58
2023/02/25 09:55:34;;;;;;;7.97;2.92;;;;;;;;;;4993490;28;20046;-62
2023/02/25 09:58:08;;;;;;;5.40;2.20;;;;;;;;;;4992965;28;20050;-61
2023/02/25 10:00:40;;;;;;;11.25;3.53;;;;;;;;;;4992640;28;20108;-61
2023/02/25 10:03:14;;;;;;;4.55;1.75;;;;;;;;;;4993113;28;20046;-62
2023/02/25 10:05:47;;;;;;;4.80;2.25;;;;;;;;;;4988141;28;20042;-60
2023/02/25 10:08:19;;;;;;;6.20;2.13;;;;;;;;;;4973531;28;20512;-59
2023/02/25 10:11:00;;;;;;;8.02;3.17;;;;;;;;;;4972885;28;20047;-60
2023/02/25 10:13:38;;;;;;;6.85;2.47;;;;;;;;;;4973194;28;20123;-60
2023/02/25 10:16:16;;;;;;;5.43;2.58;;;;;;;;;;4973176;28;20051;-61
2023/02/25 10:18:53;;;;;;;6.90;2.50;;;;;;;;;;4972952;28;20050;-61
2023/02/25 10:21:32;;;;;;;6.50;2.13;;;;;;;;;;4973163;28;20051;-61
2023/02/25 10:24:16;;;;;;;5.43;2.25;;;;;;;;;;4972716;28;20047;-62
2023/02/25 10:26:48;;;;;;;10.45;3.53;;;;;;;;;;4972974;28;20424;-61
2023/02/25 10:29:23;;;;;;;6.80;2.55;;;;;;;;;;4972815;28;20051;-61
2023/02/25 10:31:55;;;;;;;6.55;2.72;;;;;;;;;;4972763;28;20051;-62
2023/02/25 10:34:24;;;;;;;6.35;2.60;;;;;;;;;;4973048;28;20055;-61
2023/02/25 10:36:56;;;;;;;8.48;2.42;;;;;;;;;;4973008;28;20074;-61
2023/02/25 10:39:23;;;;;;;5.95;2.30;;;;;;;;;;4972715;28;20054;-58
2023/02/25 10:41:50;;;;;;;6.13;2.35;;;;;;;;;;4972732;28;20555;-57
2023/02/25 10:44:17;;;;;;;5.68;2.55;;;;;;;;;;4972916;28;20495;-60
2023/02/25 10:46:50;;;;;;;5.40;2.05;;;;;;;;;;4972833;28;20427;-56
2023/02/25 10:49:19;;;;;;;7.00;2.38;;;;;;;;;;4972882;28;20663;-61
2023/02/25 10:52:05;;;;;;;6.40;2.33;;;;;;;;;;4972570;28;20051;-60
2023/02/25 10:54:34;;;;;;;8.07;2.30;;;;;;;;;;4972536;28;20047;-60
2023/02/25 10:57:07;;;;;;;7.13;2.38;;;;;;;;;;4972742;28;20098;-62
2023/02/25 10:59:38;;;;;;;6.72;1.75;;;;;;;;;;4972955;28;20518;-59
2023/02/25 11:02:20;;;;;;;4.78;1.73;;;;;;;;;;4972808;28;20051;-60
2023/02/25 11:04:47;;;;;;;6.18;1.80;;;;;;;;;;4972891;28;20109;-59
2023/02/25 11:07:28;;;;;;;7.63;2.20;;;;;;;;;;4989549;28;20137;-61
2023/02/25 11:10:13;;;;;;;5.57;2.00;;;;;;;;;;4991943;28;20051;-61
2023/02/25 11:12:43;;;;;;;4.30;1.98;;;;;;;;;;4992086;28;20134;-60
2023/02/25 11:15:28;;;;;;;6.03;1.90;;;;;;;;;;4991896;28;20456;-59
2023/02/25 11:18:14;;;;;;;6.45;2.00;;;;;;;;;;4991938;28;20078;-61
2023/02/25 11:20:49;;;;;;;9.35;2.22;;;;;;;;;;4991731;28;20055;-60
2023/02/25 11:23:22;;;;;;;6.25;2.17;;;;;;;;;;4992009;28;20120;-57
2023/02/25 11:25:52;;;;;;;5.85;2.00;;;;;;;;;;4991867;28;20050;-58
2023/02/25 11:28:30;;;;;;;6.25;1.73;;;;;;;;;;4991928;28;20145;-61
2023/02/25 11:31:07;;;;;;;4.38;1.83;;;;;;;;;;4991648;28;20042;-60
2023/02/25 11:33:36;;;;;;;4.43;1.73;;;;;;;;;;4991838;28;20047;-63
2023/02/25 11:36:06;;;;;;;5.15;1.73;;;;;;;;;;4992630;28;20050;-60
2023/02/25 11:38:36;;;;;;;6.75;1.45;;;;;;;;;;4995311;28;20408;-61
2023/02/25 11:41:03;;;;;;;4.20;1.63;;;;;;;;;;4994923;28;20462;-61
2023/02/25 11:43:38;;;;;;;4.00;1.55;;;;;;;;;;4995137;28;20050;-52
2023/02/25 11:46:08;;;;;;;5.53;1.75;;;;;;;;;;4995116;28;20057;-57
2023/02/25 11:48:45;;;;;;;6.72;2.25;;;;;;;;;;4995035;28;20074;-56
2023/02/25 11:51:19;;;;;;;5.45;1.48;;;;;;;;;;4994739;28;20046;-57
2023/02/25 11:54:01;;;;;;;5.88;1.75;;;;;;;;;;4995171;28;20483;-55
2023/02/25 11:56:31;;;;;;;9.60;1.73;;;;;;;;;;4994950;28;20112;-56
2023/02/25 11:59:12;;;;;;;4.97;1.52;;;;;;;;;;4995189;28;20527;-56
2023/02/25 12:01:51;;;;;;;3.65;1.30;;;;;;;;;;4994864;28;20054;-58
2023/02/25 12:04:33;;;;;;;3.80;1.92;;;;;;;;;;4994161;28;20590;-57
2023/02/25 12:07:36;;;;;;;6.55;1.73;;;;;;;;;;4995271;28;20492;-57
2023/02/25 12:10:56;;;;;;;6.32;1.90;;;;;;;;;;4994619;28;20042;-57
2023/02/25 12:13:47;;;;;;;5.03;1.73;;;;;;;;;;4896963;29;20055;-56
2023/02/25 12:16:41;;;;;;;3.92;1.42;;;;;;;;;;4994409;28;20054;-57
2023/02/25 12:19:54;;;;;;;10.02;2.88;;;;;;;;;;4994660;28;20050;-53
2023/02/25 12:22:56;;;;;;;5.70;1.85;;;;;;;;;;4948165;28;20100;-57
2023/02/25 12:25:32;;;;;;;3.75;1.20;;;;;;;;;;4978199;28;20514;-56
2023/02/25 12:28:15;;;;;;;4.43;1.85;;;;;;;;;;4994498;28;20050;-55
2023/02/25 12:31:00;;;;;;;3.20;1.40;;;;;;;;;;4994083;28;20439;-57
2023/02/25 12:34:02;;;;;;;4.20;1.30;;;;;;;;;;4994492;28;20492;-59
2023/02/25 12:36:44;;;;;;;4.57;1.92;;;;;;;;;;4994093;28;20047;-55
2023/02/25 12:39:24;;;;;;;5.57;1.58;;;;;;;;;;4994076;28;20492;-56
2023/02/25 12:42:00;;;;;;;4.28;1.33;;;;;;;;;;4993915;28;20181;-58
2023/02/25 12:44:52;;;;;;;5.43;1.48;;;;;;;;;;4994190;28;20133;-55
2023/02/25 12:47:44;;;;;;;4.72;1.80;;;;;;;;;;4993126;28;20492;-52
2023/02/25 12:50:43;;;;;;;6.50;1.70;;;;;;;;;;4993944;28;20109;-58
2023/02/25 12:53:28;;;;;;;5.65;1.52;;;;;;;;;;4978773;28;20098;-58
2023/02/25 12:56:34;;;;;;;5.75;1.95;;;;;;;;;;4993939;28;20443;-57
2023/02/25 12:59:31;;;;;;;2.70;1.20;;;;;;;;;;4993895;28;20050;-58
2023/02/25 13:02:21;;;;;;;3.20;1.30;;;;;;;;;;4993400;28;20050;-57
2023/02/25 13:05:17;;;;;;;4.85;1.30;;;;;;;;;;4994083;28;20515;-56
2023/02/25 13:08:03;;;;;;;2.88;1.17;;;;;;;;;;4974105;28;20098;-56
2023/02/25 13:10:39;;;;;;;2.67;1.30;;;;;;;;;;4974330;28;20058;-53
2023/02/25 13:13:25;;;;;;;4.55;1.35;;;;;;;;;;4974250;28;20473;-56
2023/02/25 13:16:04;;;;;;;4.28;1.58;;;;;;;;;;4974084;28;20126;-55
2023/02/25 13:18:40;;;;;;;5.88;1.30;;;;;;;;;;4974107;28;20468;-56
2023/02/25 13:21:46;;;;;;;3.63;1.20;;;;;;;;;;4973790;28;20444;-57
2023/02/25 13:24:26;;;;;;;6.50;2.10;;;;;;;;;;4962895;28;20560;-58
2023/02/25 13:27:14;;;;;;;3.65;1.40;;;;;;;;;;4973792;28;20082;-58
2023/02/25 13:30:05;;;;;;;3.78;1.30;;;;;;;;;;4973750;28;20051;-58
2023/02/25 13:32:40;;;;;;;4.25;1.70;;;;;;;;;;4973785;28;20094;-55
2023/02/25 13:35:25;;;;;;;4.15;1.17;;;;;;;;;;4973753;28;20043;-56
2023/02/25 13:38:08;;;;;;;4.25;1.55;;;;;;;;;;4973569;28;20050;-57
2023/02/25 13:41:03;;;;;;;2.88;1.10;;;;;;;;;;4973546;28;20061;-55
2023/02/25 13:43:47;;;;;;;4.00;1.20;;;;;;;;;;4966042;28;20051;-57
2023/02/25 13:46:51;;;;;;;2.97;1.08;;;;;;;;;;4973585;28;20059;-56
2023/02/25 13:49:56;;;;;;;3.67;1.05;;;;;;;;;;4933632;28;20137;-58
2023/02/25 13:52:30;;;;;;;3.38;1.30;;;;;;;;;;4960029;28;20054;-57
2023/02/25 13:55:33;;;;;;;3.20;1.50;;;;;;;;;;4973419;28;20046;-57
2023/02/25 13:58:18;;;;;;;7.50;1.83;;;;;;;;;;4973171;28;20101;-54
2023/02/25 14:00:59;;;;;;;4.90;1.50;;;;;;;;;;4973764;28;20058;-60
2023/02/25 14:04:00;;;;;;;5.20;1.58;;;;;;;;;;4973981;28;20050;-54
2023/02/25 14:06:53;;;;;;;3.22;1.58;;;;;;;;;;4984468;28;20471;-53
2023/02/25 14:09:34;;;;;;;4.40;1.60;;;;;;;;;;4993376;28;20113;-61
2023/02/25 14:12:13;;;;;;;4.95;2.05;;;;;;;;;;4993341;28;20439;-56
2023/02/25 14:15:24;;;;;;;4.00;1.45;;;;;;;;;;4992743;28;20466;-62
2023/02/25 14:18:19;;;;;;;4.40;1.52;;;;;;;;;;4992360;28;20515;-61
2023/02/25 14:20:53;;;;;;;3.50;1.40;;;;;;;;;;4949529;28;20046;-62
2023/02/25 14:23:31;;;;;;;4.40;1.98;;;;;;;;;;4992721;28;20150;-61
2023/02/25 14:26:16;;;;;;;4.82;1.48;;;;;;;;;;4992696;28;20093;-57
2023/02/25 14:28:53;;;;;;;4.68;1.75;;;;;;;;;;4992639;28;20496;-56
2023/02/25 14:31:27;;;;;;;5.82;1.77;;;;;;;;;;4992527;28;20081;-55
2023/02/25 14:34:08;;;;;;;9.80;1.90;;;;;;;;;;4992659;28;20051;-54
2023/02/25 14:36:58;;;;;;;5.47;1.63;;;;;;;;;;4992138;28;20105;-55
2023/02/25 14:39:37;;;;;;;4.85;1.80;;;;;;;;;;4992109;28;20097;-56
2023/02/25 14:42:28;;;;;;;4.20;1.60;;;;;;;;;;4992337;28;20062;-55
2023/02/25 14:44:59;;;;;;;5.55;2.38;;;;;;;;;;4992447;28;20093;-57
2023/02/25 14:47:30;;;;;;;5.30;2.30;;;;;;;;;;4991389;28;20381;-57
2023/02/25 14:50:03;;;;;;;4.55;1.20;;;;;;;;;;4992926;28;20050;-57
2023/02/25 14:53:00;;;;;;;3.42;1.60;;;;;;;;;;4993221;28;20053;-54
2023/02/25 14:55:46;;;;;;;5.35;1.67;;;;;;;;;;4993914;28;20051;-55
2023/02/25 14:58:43;;;;;;;4.70;1.88;;;;;;;;;;4993537;28;20050;-54
2023/02/25 15:01:28;;;;;;;5.05;1.83;;;;;;;;;;4993312;28;20097;-54
2023/02/25 15:04:18;;;;;;;3.55;1.73;;;;;;;;;;4993089;28;20050;-53
2023/02/25 15:06:59;;;;;;;4.85;1.38;;;;;;;;;;4993105;28;20050;-55
2023/02/25 15:09:59;;;;;;;6.80;1.85;;;;;;;;;;4992848;28;20142;-59
2023/02/25 15:12:47;;;;;;;6.05;2.20;;;;;;;;;;4996180;28;20049;-59
2023/02/25 15:15:43;;;;;;;5.85;1.67;;;;;;;;;;4996375;28;20054;-54
2023/02/25 15:18:34;;;;;;;4.18;1.65;;;;;;;;;;4996646;28;20476;-57